createdAt,value
2019-04-19T00:01:14.102Z,22.50
2019-04-19T00:03:42.525Z,22.60
2019-04-19T00:06:27.440Z,22.90
2019-04-19T00:09:09.126Z,22.90
2019-04-19T00:11:31.607Z,23.10
2019-04-19T00:13:53.565Z,23.10
2019-04-19T00:16:22.091Z,23.20
2019-04-19T00:19:14.112Z,23.40
2019-04-19T00:21:39.437Z,23.60
2019-04-19T00:23:52.943Z,23.70
2019-04-19T00:26:21.141Z,24.00
2019-04-19T00:28:54.907Z,23.80
2019-04-19T00:31:30.872Z,24.00
2019-04-19T00:33:53.915Z,24.10
2019-04-19T00:36:21.341Z,23.90
2019-04-19T00:39:05.096Z,24.10
2019-04-19T00:41:47.518Z,24.40
2019-04-19T00:44:33.764Z,24.50
2019-04-19T00:47:02.548Z,24.60
2019-04-19T00:49:19.906Z,24.50
2019-04-19T00:51:54.098Z,24.20
2019-04-19T00:54:18.047Z,24.30
2019-04-19T00:56:51.330Z,24.40
2019-04-19T00:59:14.309Z,24.90
2019-04-19T01:01:41.959Z,24.80
2019-04-19T01:04:13.526Z,24.90
2019-04-19T01:06:48.466Z,24.90
2019-04-19T01:09:24.193Z,24.80
2019-04-19T01:11:55.629Z,24.50
2019-04-19T01:14:21.690Z,25.20
2019-04-19T01:16:57.520Z,25.00
2019-04-19T01:19:15.030Z,25.10
2019-04-19T01:21:42.897Z,25.30
2019-04-19T01:24:11.561Z,60.40
2019-04-19T01:26:43.780Z,60.50
2019-04-19T01:29:13.883Z,60.50
2019-04-19T01:31:41.698Z,60.40
2019-04-19T01:34:16.494Z,60.50
2019-04-19T01:36:44.199Z,60.50
2019-04-19T01:39:25.248Z,60.60
2019-04-19T01:41:52.437Z,60.70
2019-04-19T01:44:43.978Z,60.60
2019-04-19T01:47:22.738Z,60.60
2019-04-19T01:49:53.805Z,60.70
2019-04-19T01:52:38.316Z,60.80
2019-04-19T01:54:53.374Z,60.70
2019-04-19T01:57:12.357Z,60.70
2019-04-19T01:59:44.893Z,60.90
2019-04-19T02:02:14.323Z,60.80
2019-04-19T02:04:41.287Z,61.00
2019-04-19T02:07:12.648Z,61.00
2019-04-19T02:09:56.369Z,61.00
2019-04-19T02:12:26.146Z,60.80
2019-04-19T02:14:51.742Z,60.70
2019-04-19T02:17:16.033Z,60.80
2019-04-19T02:19:50.232Z,60.90
2019-04-19T02:22:20.435Z,60.90
2019-04-19T02:24:49.190Z,60.80
2019-04-19T02:27:16.905Z,61.00
2019-04-19T02:29:54.130Z,61.20
2019-04-19T02:32:30.916Z,61.00
2019-04-19T02:37:37.690Z,61.30
2019-04-19T02:45:12.191Z,61.40
2019-04-19T02:50:11.494Z,61.50
2019-04-19T02:52:47.544Z,61.40
2019-04-19T02:57:49.001Z,61.60
2019-04-19T03:00:32.010Z,61.70
2019-04-19T03:02:53.297Z,61.80
2019-04-19T03:05:18.743Z,61.80
2019-04-19T03:07:28.221Z,61.80
2019-04-19T03:09:58.056Z,61.90
2019-04-19T03:12:48.635Z,61.70
2019-04-19T03:15:09.989Z,62.00
2019-04-19T03:17:44.995Z,62.00
2019-04-19T03:20:16.571Z,62.30
2019-04-19T03:22:43.579Z,62.20
2019-04-19T03:25:15.906Z,62.30
2019-04-19T03:27:43.154Z,62.20
2019-04-19T03:30:10.950Z,62.40
2019-04-19T03:35:12.679Z,62.30
2019-04-19T03:37:51.232Z,62.40
2019-04-19T03:42:58.580Z,62.80
2019-04-19T03:45:30.409Z,62.90
2019-04-19T03:48:05.123Z,62.80
2019-04-19T03:50:31.763Z,62.70
2019-04-19T03:53:00.723Z,62.80
2019-04-19T03:55:32.502Z,63.20
2019-04-19T03:57:53.734Z,63.10
2019-04-19T04:00:15.305Z,63.20
2019-04-19T04:02:46.771Z,63.00
2019-04-19T04:05:17.478Z,63.10
2019-04-19T04:07:55.303Z,63.20
2019-04-19T04:10:32.745Z,63.20
2019-04-19T04:13:15.844Z,63.30
2019-04-19T04:15:51.590Z,63.40
2019-04-19T04:18:09.098Z,63.50
2019-04-19T04:20:43.613Z,63.40
2019-04-19T04:23:13.614Z,63.60
2019-04-19T04:25:48.458Z,63.70
2019-04-19T04:28:23.945Z,63.40
2019-04-19T04:30:51.663Z,63.50
2019-04-19T04:33:25.736Z,63.80
2019-04-19T04:35:53.094Z,64.00
2019-04-19T04:38:16.762Z,64.10
2019-04-19T04:40:40.166Z,63.80
2019-04-19T04:43:24.928Z,63.80
2019-04-19T04:46:13.566Z,63.90
2019-04-19T04:48:51.038Z,64.10
2019-04-19T04:51:26.117Z,63.90
2019-04-19T04:53:41.167Z,64.10
2019-04-19T04:56:13.964Z,64.50
2019-04-19T04:58:47.484Z,64.60
2019-04-19T05:01:32.382Z,64.50
2019-04-19T05:04:02.015Z,64.10
2019-04-19T05:06:29.543Z,64.60
2019-04-19T05:08:58.497Z,64.60
2019-04-19T05:11:31.618Z,64.30
2019-04-19T05:14:09.567Z,64.20
2019-04-19T05:16:40.555Z,64.10
2019-04-19T05:19:03.869Z,64.10
2019-04-19T05:21:32.958Z,63.80
2019-04-19T05:24:13.695Z,64.10
2019-04-19T05:28:59.593Z,63.70
2019-04-19T05:31:28.942Z,63.00
2019-04-19T05:34:12.413Z,63.10
2019-04-19T05:36:38.729Z,63.20
2019-04-19T05:39:14.749Z,62.90
2019-04-19T05:41:48.987Z,62.90
2019-04-19T05:46:55.849Z,62.90
2019-04-19T05:49:21.973Z,63.10
2019-04-19T05:51:51.492Z,62.90
2019-04-19T05:54:09.757Z,62.80
2019-04-19T05:56:37.235Z,63.00
2019-04-19T05:59:12.724Z,62.60
2019-04-19T06:01:52.070Z,62.60
2019-04-19T06:04:22.607Z,62.30
2019-04-19T06:06:56.615Z,62.30
2019-04-19T06:09:07.053Z,62.00
2019-04-19T06:11:38.253Z,28.90
2019-04-19T06:14:24.544Z,28.30
2019-04-19T06:16:51.449Z,27.60
2019-04-19T06:19:27.738Z,27.60
2019-04-19T06:21:54.861Z,27.10
2019-04-19T06:24:30.111Z,26.40
2019-04-19T06:27:20.776Z,26.10
2019-04-19T06:29:34.048Z,26.20
2019-04-19T06:32:02.471Z,26.30
2019-04-19T06:34:31.386Z,25.60
2019-04-19T06:36:39.989Z,23.70
2019-04-19T06:39:09.899Z,23.80
2019-04-19T06:41:47.558Z,24.40
2019-04-19T06:44:19.920Z,24.50
2019-04-19T06:46:51.376Z,24.40
2019-04-19T06:49:15.985Z,24.00
2019-04-19T06:51:48.702Z,24.50
2019-04-19T06:54:12.316Z,23.90
2019-04-19T06:56:42.355Z,23.90
2019-04-19T06:59:19.183Z,23.60
2019-04-19T07:01:48.670Z,24.10
2019-04-19T07:04:10.666Z,24.10
2019-04-19T07:07:02.041Z,24.80
2019-04-19T07:09:37.560Z,24.60
2019-04-19T07:12:02.632Z,24.20
2019-04-19T07:14:18.942Z,24.50
2019-04-19T07:17:02.650Z,24.50
2019-04-19T07:19:30.657Z,24.60
2019-04-19T07:21:59.462Z,24.40
2019-04-19T07:24:40.745Z,24.40
2019-04-19T07:27:03.931Z,24.70
2019-04-19T07:29:14.729Z,24.00
2019-04-19T07:31:43.351Z,23.60
2019-04-19T07:34:32.506Z,23.70
2019-04-19T07:37:03.449Z,24.20
2019-04-19T07:39:30.602Z,23.60
2019-04-19T07:42:03.456Z,24.30
2019-04-19T07:44:41.055Z,23.80
2019-04-19T07:47:13.970Z,24.20
2019-04-19T07:49:40.509Z,24.20
2019-04-19T07:52:14.041Z,24.60
2019-04-19T07:54:35.348Z,24.10
2019-04-19T07:57:39.395Z,23.90
2019-04-19T08:00:04.614Z,24.30
2019-04-19T08:02:36.053Z,25.20
2019-04-19T08:05:06.661Z,24.40
2019-04-19T08:07:41.905Z,25.30
2019-04-19T08:12:34.066Z,24.00
2019-04-19T08:27:30.981Z,24.70
2019-04-19T08:29:46.967Z,25.10
2019-04-19T08:32:09.102Z,25.10
2019-04-19T08:34:39.061Z,24.40
2019-04-19T08:37:16.405Z,25.10
2019-04-19T08:39:52.759Z,24.30
2019-04-19T08:42:24.381Z,24.40
2019-04-19T08:44:49.206Z,24.70
2019-04-19T08:47:32.611Z,25.50
2019-04-19T08:50:01.459Z,24.90
2019-04-19T08:52:32.473Z,24.90
2019-04-19T08:55:19.304Z,24.80
2019-04-19T08:57:31.181Z,25.70
2019-04-19T09:00:25.625Z,26.70
2019-04-19T09:02:45.319Z,25.50
2019-04-19T09:05:18.378Z,25.30
2019-04-19T09:07:57.887Z,26.20
2019-04-19T09:10:27.547Z,26.90
2019-04-19T09:12:57.749Z,26.00
2019-04-19T09:15:20.301Z,25.50
2019-04-19T09:18:21.527Z,25.00
2019-04-19T09:20:25.109Z,25.70
2019-04-19T09:23:00.785Z,25.10
2019-04-19T09:25:50.887Z,26.20
2019-04-19T09:28:41.921Z,26.20
2019-04-19T09:30:54.702Z,27.00
2019-04-19T09:33:18.306Z,25.40
2019-04-19T09:35:50.603Z,25.60
2019-04-19T09:38:21.711Z,25.50
2019-04-19T09:40:50.464Z,26.30
2019-04-19T09:43:24.772Z,27.20
2019-04-19T09:45:42.811Z,25.80
2019-04-19T09:48:31.654Z,26.10
2019-04-19T09:51:00.892Z,26.50
2019-04-19T09:53:41.845Z,25.90
2019-04-19T09:56:07.643Z,26.20
2019-04-19T09:58:30.183Z,26.80
2019-04-19T10:00:45.357Z,27.00
2019-04-19T10:03:21.937Z,26.80
2019-04-19T10:05:44.619Z,26.70
2019-04-19T10:08:13.637Z,25.70
2019-04-19T10:10:44.908Z,26.60
2019-04-19T10:13:12.495Z,26.10
2019-04-19T10:15:54.823Z,26.50
2019-04-19T10:18:23.264Z,27.00
2019-04-19T10:20:56.614Z,26.60
2019-04-19T10:23:25.432Z,26.30
2019-04-19T10:25:58.569Z,26.20
2019-04-19T10:28:26.878Z,26.20
2019-04-19T10:31:00.957Z,26.20
2019-04-19T10:33:37.809Z,26.20
2019-04-19T10:36:00.195Z,26.90
2019-04-19T10:38:29.623Z,26.50
2019-04-19T10:40:58.205Z,26.30
2019-04-19T10:43:27.393Z,26.20
2019-04-19T10:45:56.049Z,26.40
2019-04-19T10:48:27.623Z,25.90
2019-04-19T10:51:16.012Z,26.60
2019-04-19T10:53:44.474Z,25.70
2019-04-19T10:56:14.535Z,26.30
2019-04-19T10:58:43.045Z,27.80
2019-04-19T11:01:13.549Z,27.10
2019-04-19T11:03:42.198Z,26.60
2019-04-19T11:06:10.767Z,26.50
2019-04-19T11:08:40.336Z,26.80
2019-04-19T11:11:09.572Z,26.20
2019-04-19T11:13:38.215Z,26.60
2019-04-19T11:16:06.862Z,26.80
2019-04-19T11:18:35.526Z,26.60
2019-04-19T11:21:05.127Z,27.60
2019-04-19T11:23:33.882Z,27.80
2019-04-19T11:26:03.200Z,26.90
2019-04-19T11:28:31.675Z,26.70
2019-04-19T11:31:02.534Z,27.50
2019-04-19T11:33:33.088Z,27.90
2019-04-19T11:36:01.891Z,28.20
2019-04-19T11:38:31.371Z,27.70
2019-04-19T11:41:00.853Z,27.80
2019-04-19T11:43:29.679Z,28.00
2019-04-19T11:45:58.222Z,28.30
2019-04-19T11:48:26.947Z,28.10
2019-04-19T11:50:55.963Z,27.60
2019-04-19T11:53:26.912Z,27.60
2019-04-19T11:56:14.399Z,28.10
2019-04-19T11:58:44.688Z,27.60
2019-04-19T12:01:14.743Z,27.90
2019-04-19T12:03:43.740Z,26.50
2019-04-19T12:06:12.498Z,27.30
2019-04-19T12:08:42.341Z,27.10
2019-04-19T12:11:12.512Z,26.50
2019-04-19T12:13:41.332Z,26.80
2019-04-19T12:16:10.862Z,27.70
2019-04-19T12:18:41.730Z,27.90
2019-04-19T12:21:09.808Z,29.30
2019-04-19T12:23:38.975Z,29.50
2019-04-19T12:26:07.547Z,27.90
2019-04-19T12:28:36.097Z,28.50
2019-04-19T12:31:05.280Z,29.50
2019-04-19T12:33:33.843Z,29.40
2019-04-19T12:36:03.348Z,29.50
2019-04-19T12:38:33.230Z,28.90
2019-04-19T12:41:03.789Z,28.00
2019-04-19T12:43:32.446Z,27.50
2019-04-19T12:46:01.373Z,28.20
2019-04-19T12:48:29.908Z,27.50
2019-04-19T12:50:58.633Z,27.90
2019-04-19T12:53:27.056Z,28.20
2019-04-19T12:55:56.126Z,28.00
2019-04-19T12:58:26.224Z,27.10
2019-04-19T13:00:57.446Z,26.90
2019-04-19T13:03:44.289Z,27.20
2019-04-19T13:06:21.757Z,26.60
2019-04-19T13:08:50.995Z,26.80
2019-04-19T13:11:20.923Z,26.30
2019-04-19T13:13:50.013Z,26.70
2019-04-19T13:16:18.863Z,26.60
2019-04-19T13:18:48.380Z,27.50
2019-04-19T13:21:19.875Z,28.20
2019-04-19T13:23:48.467Z,27.20
2019-04-19T13:26:17.728Z,27.00
2019-04-19T13:28:47.090Z,26.50
2019-04-19T13:31:16.550Z,26.50
2019-04-19T13:33:45.138Z,26.00
2019-04-19T13:36:15.283Z,27.70
2019-04-19T13:38:48.785Z,26.10
2019-04-19T13:41:25.238Z,26.10
2019-04-19T13:43:53.756Z,26.20
2019-04-19T13:46:22.337Z,26.30
2019-04-19T13:48:50.906Z,26.10
2019-04-19T13:51:20.552Z,25.40
2019-04-19T13:53:49.230Z,25.50
2019-04-19T13:56:18.377Z,25.40
2019-04-19T13:58:47.601Z,25.20
2019-04-19T14:01:18.575Z,25.60
2019-04-19T14:03:48.303Z,25.00
2019-04-19T14:06:18.080Z,25.50
2019-04-19T14:08:47.548Z,26.10
2019-04-19T14:11:17.230Z,26.60
2019-04-19T14:13:50.905Z,27.00
2019-04-19T14:16:16.735Z,25.80
2019-04-19T14:18:46.679Z,25.40
2019-04-19T14:21:15.377Z,24.60
2019-04-19T14:23:43.805Z,24.10
2019-04-19T14:26:12.910Z,25.70
2019-04-19T14:28:41.478Z,24.80
2019-04-19T14:31:10.344Z,23.60
2019-04-19T14:33:39.164Z,24.30
2019-04-19T14:36:08.160Z,25.20
2019-04-19T14:38:36.676Z,24.80
2019-04-19T14:41:07.263Z,24.50
2019-04-19T14:43:36.582Z,24.50
2019-04-19T14:46:06.683Z,24.60
2019-04-19T14:48:40.018Z,24.50
2019-04-19T14:51:12.197Z,23.30
2019-04-19T14:53:38.576Z,24.10
2019-04-19T14:56:07.358Z,23.80
2019-04-19T14:58:35.850Z,24.40
2019-04-19T15:01:09.109Z,24.40
2019-04-19T15:03:38.958Z,23.70
2019-04-19T15:06:10.090Z,23.10
2019-04-19T15:08:39.212Z,23.70
2019-04-19T15:11:07.818Z,23.60
2019-04-19T15:13:36.898Z,23.50
2019-04-19T15:16:06.529Z,23.30
2019-04-19T15:18:35.405Z,23.10
2019-04-19T15:21:09.931Z,22.80
2019-04-19T15:23:36.509Z,23.40
2019-04-19T15:26:06.633Z,23.30
2019-04-19T15:28:35.327Z,23.00
2019-04-19T15:31:03.977Z,22.70
2019-04-19T15:33:32.487Z,22.30
2019-04-19T15:36:01.908Z,22.10
2019-04-19T15:38:32.168Z,22.10
2019-04-19T15:41:01.847Z,22.10
2019-04-19T15:43:30.562Z,22.10
2019-04-19T15:45:59.112Z,22.00
2019-04-19T15:48:38.005Z,21.90
2019-04-19T15:51:08.340Z,21.60
2019-04-19T15:53:28.218Z,21.30
2019-04-19T15:55:57.938Z,21.60
2019-04-19T15:58:26.613Z,21.50
2019-04-19T16:00:56.751Z,21.70
2019-04-19T16:03:29.909Z,21.70
2019-04-19T16:06:00.206Z,21.60
2019-04-19T16:08:30.440Z,21.50
2019-04-19T16:11:00.521Z,21.30
2019-04-19T16:13:29.988Z,21.60
2019-04-19T16:15:58.619Z,21.50
2019-04-19T16:18:28.503Z,21.30
2019-04-19T16:20:57.111Z,21.30
2019-04-19T16:23:26.009Z,21.10
2019-04-19T16:25:55.000Z,21.30
2019-04-19T16:28:23.703Z,21.20
2019-04-19T16:30:52.626Z,21.00
2019-04-19T16:33:22.124Z,20.70
2019-04-19T16:35:50.708Z,20.90
2019-04-19T16:38:19.863Z,21.10
2019-04-19T16:40:48.591Z,20.80
2019-04-19T16:43:19.559Z,20.80
2019-04-19T16:46:01.485Z,20.90
2019-04-19T16:48:18.808Z,20.80
2019-04-19T16:50:48.392Z,20.90
2019-04-19T16:53:17.744Z,20.70
2019-04-19T16:55:47.667Z,20.70
2019-04-19T16:58:16.754Z,20.60
2019-04-19T17:00:47.039Z,20.40
2019-04-19T17:03:17.315Z,20.30
2019-04-19T17:05:46.514Z,20.30
2019-04-19T17:08:15.641Z,20.20
2019-04-19T17:10:44.860Z,20.40
2019-04-19T17:13:14.884Z,20.30
2019-04-19T17:15:54.889Z,20.10
2019-04-19T17:18:30.730Z,20.20
2019-04-19T17:21:10.096Z,19.90
2019-04-19T17:23:38.910Z,19.50
2019-04-19T17:26:08.744Z,19.80
2019-04-19T17:28:37.383Z,19.40
2019-04-19T17:31:08.636Z,19.50
2019-04-19T17:33:39.976Z,19.40
2019-04-19T17:36:08.743Z,19.30
2019-04-19T17:38:44.142Z,19.20
2019-04-19T17:41:07.765Z,18.90
2019-04-19T17:43:37.396Z,18.60
2019-04-19T17:46:06.611Z,18.40
2019-04-19T17:48:35.168Z,18.30
2019-04-19T17:51:04.032Z,18.10
2019-04-19T17:53:39.922Z,18.10
2019-04-19T17:56:03.580Z,18.10
2019-04-19T17:58:32.098Z,18.00
2019-04-19T18:01:00.565Z,17.70
2019-04-19T18:03:29.146Z,17.70
2019-04-19T18:05:58.312Z,17.20
2019-04-19T18:08:30.975Z,17.10
2019-04-19T18:10:59.056Z,17.00
2019-04-19T18:13:27.282Z,17.30
2019-04-19T18:15:56.425Z,17.00
2019-04-19T18:18:25.041Z,16.80
2019-04-19T18:20:56.028Z,16.60
2019-04-19T18:23:34.767Z,16.80
2019-04-19T18:25:54.931Z,16.70
2019-04-19T18:28:30.102Z,16.50
2019-04-19T18:30:57.063Z,16.40
2019-04-19T18:33:32.159Z,16.30
2019-04-19T18:36:06.955Z,16.30
2019-04-19T18:38:32.853Z,16.10
2019-04-19T18:41:01.451Z,15.70
2019-04-19T18:43:38.760Z,16.00
2019-04-19T18:46:02.425Z,16.30
2019-04-19T18:48:31.501Z,16.30
2019-04-19T18:51:00.232Z,16.40
2019-04-19T18:53:39.243Z,16.20
2019-04-19T18:56:04.166Z,16.10
2019-04-19T18:58:34.635Z,15.70
2019-04-19T19:01:01.295Z,15.70
2019-04-19T19:03:33.963Z,15.60
2019-04-19T19:06:02.965Z,15.50
2019-04-19T19:08:35.117Z,15.60
2019-04-19T19:11:04.232Z,15.70
2019-04-19T19:13:34.526Z,15.50
2019-04-19T19:16:02.186Z,15.40
2019-04-19T19:18:33.679Z,15.70
2019-04-19T19:21:03.154Z,15.60
2019-04-19T19:23:45.696Z,15.70
2019-04-19T19:26:13.740Z,15.40
2019-04-19T19:28:32.286Z,15.40
2019-04-19T19:31:00.834Z,15.10
2019-04-19T19:33:37.823Z,15.40
2019-04-19T19:36:03.332Z,15.10
2019-04-19T19:38:33.989Z,15.10
2019-04-19T19:41:22.143Z,15.00
2019-04-19T19:43:46.628Z,15.30
2019-04-19T19:46:23.149Z,15.60
2019-04-19T19:48:59.550Z,15.50
2019-04-19T19:51:18.175Z,16.00
2019-04-19T19:58:41.189Z,15.30
2019-04-19T20:01:22.374Z,15.50
2019-04-19T20:03:43.199Z,17.40
2019-04-19T20:06:12.590Z,17.40
2019-04-19T20:08:42.260Z,17.50
2019-04-19T20:11:10.360Z,17.30
2019-04-19T20:13:42.484Z,17.40
2019-04-19T20:16:19.019Z,17.60
2019-04-19T20:18:45.414Z,17.80
2019-04-19T20:21:13.478Z,18.40
2019-04-19T20:23:55.307Z,18.50
2019-04-19T20:26:20.343Z,18.40
2019-04-19T20:28:41.177Z,18.20
2019-04-19T20:31:11.127Z,18.20
2019-04-19T20:33:48.541Z,18.50
2019-04-19T20:36:12.631Z,18.40
2019-04-19T20:38:48.596Z,18.80
2019-04-19T20:41:12.166Z,19.00
2019-04-19T20:43:54.476Z,18.80
2019-04-19T20:46:17.455Z,18.80
2019-04-19T20:48:45.867Z,19.20
2019-04-19T20:51:30.624Z,19.00
2019-04-19T20:53:59.472Z,19.10
2019-04-19T20:56:42.478Z,19.10
2019-04-19T20:58:56.331Z,19.20
2019-04-19T21:01:22.884Z,19.30
2019-04-19T21:03:52.945Z,19.10
2019-04-19T21:06:28.719Z,19.30
2019-04-19T21:08:53.270Z,19.30
2019-04-19T21:11:23.366Z,19.50
2019-04-19T21:13:57.264Z,19.90
2019-04-19T21:16:27.041Z,19.40
2019-04-19T21:19:00.555Z,19.40
2019-04-19T21:21:26.999Z,19.20
2019-04-19T21:24:01.412Z,19.60
2019-04-19T21:26:31.354Z,20.30
2019-04-19T21:28:57.543Z,20.20
2019-04-19T21:31:34.168Z,20.00
2019-04-19T21:33:59.848Z,19.90
2019-04-19T21:36:34.844Z,19.90
2019-04-19T21:39:01.214Z,20.20
2019-04-19T21:41:33.182Z,20.10
2019-04-19T21:43:57.070Z,20.10
2019-04-19T21:46:29.121Z,20.00
2019-04-19T21:48:56.950Z,20.30
2019-04-19T21:51:28.904Z,20.30
2019-04-19T21:53:56.708Z,20.10
2019-04-19T21:56:25.669Z,20.10
2019-04-19T21:58:57.438Z,20.40
2019-04-19T22:01:25.870Z,20.50
2019-04-19T22:04:02.177Z,20.40
2019-04-19T22:06:28.524Z,55.30
2019-04-19T22:09:00.109Z,55.50
2019-04-19T22:11:26.631Z,56.20
2019-04-19T22:13:55.545Z,56.00
2019-04-19T22:16:31.683Z,55.90
2019-04-19T22:18:56.071Z,55.60
2019-04-19T22:21:30.181Z,55.90
2019-04-19T22:23:55.000Z,55.70
2019-04-19T22:26:30.292Z,55.60
2019-04-19T22:28:55.395Z,55.30
2019-04-19T22:31:28.847Z,55.80
2019-04-19T22:33:54.506Z,55.80
2019-04-19T22:36:23.625Z,55.60
2019-04-19T22:38:58.357Z,55.50
2019-04-19T22:41:26.677Z,55.70
2019-04-19T22:43:54.517Z,55.80
2019-04-19T22:46:23.614Z,56.30
2019-04-19T22:48:57.917Z,56.60
2019-04-19T22:51:22.624Z,56.90
2019-04-19T22:53:52.562Z,56.50
2019-04-19T22:56:30.893Z,56.50
2019-04-19T22:58:51.666Z,56.60
2019-04-19T23:01:26.367Z,56.40
2019-04-19T23:04:00.121Z,56.60
2019-04-19T23:06:28.114Z,56.70
2019-04-19T23:08:56.710Z,56.50
2019-04-19T23:11:25.738Z,57.00
2019-04-19T23:13:55.622Z,56.90
2019-04-19T23:16:25.573Z,57.30
2019-04-19T23:19:00.884Z,57.20
2019-04-19T23:21:26.394Z,57.80
2019-04-19T23:23:56.950Z,57.60
2019-04-19T23:26:45.799Z,57.30
2019-04-19T23:28:54.991Z,57.40
2019-04-19T23:31:24.656Z,57.40
2019-04-19T23:34:00.510Z,57.60
2019-04-19T23:36:25.895Z,57.40
2019-04-19T23:38:59.774Z,57.70
2019-04-19T23:41:24.756Z,57.80
2019-04-19T23:43:53.414Z,57.80
2019-04-19T23:46:25.862Z,57.90
2019-04-19T23:48:54.365Z,57.70
2019-04-19T23:51:23.215Z,57.50
2019-04-19T23:53:52.235Z,57.80
2019-04-19T23:56:32.554Z,58.00
2019-04-19T23:58:52.696Z,58.40
